createdAt,value
2023-02-07T00:00:30.623Z,13
2023-02-07T00:02:30.653Z,13
2023-02-07T00:04:30.618Z,13
2023-02-07T00:05:30.616Z,13
2023-02-07T00:06:30.790Z,14
2023-02-07T00:07:30.625Z,14
2023-02-07T00:08:30.626Z,13
2023-02-07T00:09:30.655Z,15
2023-02-07T00:10:30.619Z,15
2023-02-07T00:11:30.618Z,13
2023-02-07T00:12:30.624Z,15
2023-02-07T00:13:30.628Z,14
2023-02-07T00:14:30.625Z,14
2023-02-07T00:15:30.606Z,14
2023-02-07T00:17:30.620Z,13
2023-02-07T00:18:30.660Z,14
2023-02-07T00:19:30.626Z,13
2023-02-07T00:20:30.625Z,14
2023-02-07T00:21:30.633Z,15
2023-02-07T00:22:30.625Z,15
2023-02-07T00:23:30.691Z,16
2023-02-07T00:25:30.629Z,15
2023-02-07T00:26:30.617Z,17
2023-02-07T00:27:30.718Z,16
2023-02-07T00:28:30.785Z,16
2023-02-07T00:29:30.620Z,16
2023-02-07T00:30:30.806Z,16
2023-02-07T00:31:30.921Z,17
2023-02-07T00:32:30.627Z,17
2023-02-07T00:33:30.652Z,16
2023-02-07T00:35:30.634Z,15
2023-02-07T00:36:30.662Z,16
2023-02-07T00:37:30.681Z,17
2023-02-07T00:38:30.671Z,17
2023-02-07T00:39:30.673Z,17
2023-02-07T00:41:30.688Z,18
2023-02-07T00:42:30.690Z,18
2023-02-07T00:43:30.675Z,20
2023-02-07T00:44:30.668Z,21
2023-02-07T00:45:30.667Z,20
2023-02-07T00:46:30.680Z,22
2023-02-07T00:48:30.666Z,24
2023-02-07T00:49:30.675Z,23
2023-02-07T00:50:30.675Z,25
2023-02-07T00:51:30.680Z,23
2023-02-07T00:52:30.663Z,23
2023-02-07T00:53:30.752Z,23
2023-02-07T00:54:30.752Z,24
2023-02-07T00:56:30.763Z,24
2023-02-07T00:57:30.771Z,23
2023-02-07T00:58:30.771Z,22
2023-02-07T00:59:30.762Z,24
2023-02-07T01:00:30.760Z,24
2023-02-07T01:01:30.854Z,22
2023-02-07T01:02:30.763Z,22
2023-02-07T01:03:30.758Z,23
2023-02-07T01:04:30.809Z,22
2023-02-07T01:05:30.757Z,21
2023-02-07T01:07:30.777Z,21
2023-02-07T01:08:30.764Z,23
2023-02-07T01:09:30.958Z,23
2023-02-07T01:10:45.101Z,24
2023-02-07T01:11:59.194Z,22
2023-02-07T01:14:27.453Z,23
2023-02-07T01:15:41.614Z,24
2023-02-07T01:16:55.688Z,23
2023-02-07T01:18:46.880Z,23
2023-02-07T01:20:38.072Z,23
2023-02-07T01:21:52.576Z,22
2023-02-07T01:23:43.373Z,22
2023-02-07T01:24:57.497Z,22
2023-02-07T01:26:48.708Z,22
2023-02-07T01:28:39.874Z,21
2023-02-07T01:30:30.807Z,21
2023-02-07T01:30:52.475Z,22
2023-02-07T01:31:43.951Z,22
2023-02-07T01:33:30.703Z,22
2023-02-07T01:34:30.717Z,23
2023-02-07T01:35:30.739Z,22
2023-02-07T01:36:30.691Z,22
2023-02-07T01:37:30.697Z,22
2023-02-07T01:38:30.694Z,22
2023-02-07T01:39:30.685Z,23
2023-02-07T01:41:30.694Z,21
2023-02-07T01:42:30.687Z,22
2023-02-07T01:44:30.685Z,20
2023-02-07T01:45:30.664Z,21
2023-02-07T01:46:30.735Z,18
2023-02-07T01:47:30.690Z,18
2023-02-07T01:48:30.687Z,19
2023-02-07T01:49:30.694Z,20
2023-02-07T01:50:30.684Z,20
2023-02-07T01:51:30.672Z,19
2023-02-07T01:52:30.684Z,20
2023-02-07T01:54:30.689Z,19
2023-02-07T01:55:30.677Z,20
2023-02-07T01:56:32.275Z,20
2023-02-07T01:57:30.736Z,20
2023-02-07T01:58:30.686Z,20
2023-02-07T01:59:30.691Z,20
2023-02-07T02:00:30.706Z,19
2023-02-07T02:02:30.781Z,20
2023-02-07T02:03:30.676Z,19
2023-02-07T02:04:30.682Z,19
2023-02-07T02:05:30.710Z,19
2023-02-07T02:06:30.692Z,18
2023-02-07T02:07:30.685Z,19
2023-02-07T02:08:30.702Z,20
2023-02-07T02:09:30.686Z,19
2023-02-07T02:10:30.697Z,21
2023-02-07T02:11:30.687Z,19
2023-02-07T02:12:30.680Z,18
2023-02-07T02:13:30.769Z,20
2023-02-07T02:14:30.765Z,19
2023-02-07T02:15:30.782Z,18
2023-02-07T02:16:30.774Z,18
2023-02-07T02:17:30.771Z,20
2023-02-07T02:18:30.787Z,19
2023-02-07T02:21:30.770Z,19
2023-02-07T02:22:30.771Z,19
2023-02-07T02:23:30.764Z,18
2023-02-07T02:24:30.798Z,20
2023-02-07T02:25:30.767Z,18
2023-02-07T02:26:30.760Z,18
2023-02-07T02:27:30.789Z,18
2023-02-07T02:31:30.780Z,18
2023-02-07T02:32:30.688Z,18
2023-02-07T02:33:30.688Z,18
2023-02-07T02:34:30.706Z,18
2023-02-07T02:35:30.676Z,19
2023-02-07T02:36:30.709Z,18
2023-02-07T02:37:30.697Z,18
2023-02-07T02:38:30.682Z,17
2023-02-07T02:39:30.688Z,18
2023-02-07T02:40:30.686Z,17
2023-02-07T02:42:30.687Z,18
2023-02-07T02:43:30.684Z,19
2023-02-07T02:44:30.684Z,18
2023-02-07T02:45:30.684Z,18
2023-02-07T02:46:30.786Z,17
2023-02-07T02:47:30.688Z,20
2023-02-07T02:48:30.689Z,20
2023-02-07T02:51:30.679Z,26
2023-02-07T02:52:44.995Z,20
2023-02-07T02:53:30.692Z,21
2023-02-07T02:54:30.695Z,21
2023-02-07T02:55:30.669Z,20
2023-02-07T02:56:30.688Z,22
2023-02-07T02:57:30.704Z,23
2023-02-07T02:58:30.700Z,24
2023-02-07T02:59:30.690Z,22
2023-02-07T03:00:30.719Z,23
2023-02-07T03:01:30.804Z,22
2023-02-07T03:02:30.704Z,23
2023-02-07T03:03:30.691Z,21
2023-02-07T03:05:30.812Z,22
2023-02-07T03:06:30.688Z,22
2023-02-07T03:07:30.755Z,23
2023-02-07T03:08:30.710Z,23
2023-02-07T03:09:30.690Z,23
2023-02-07T03:10:30.702Z,24
2023-02-07T03:11:30.696Z,22
2023-02-07T03:12:30.750Z,22
2023-02-07T03:13:30.697Z,23
2023-02-07T03:14:30.705Z,24
2023-02-07T03:15:30.708Z,22
2023-02-07T03:16:30.779Z,23
2023-02-07T03:17:30.816Z,22
2023-02-07T03:18:30.778Z,23
2023-02-07T03:19:30.800Z,22
2023-02-07T03:20:30.783Z,21
2023-02-07T03:21:30.801Z,22
2023-02-07T03:22:30.792Z,21
2023-02-07T03:25:30.759Z,22
2023-02-07T03:26:30.785Z,22
2023-02-07T03:27:30.777Z,22
2023-02-07T03:28:30.773Z,25
2023-02-07T03:29:30.782Z,29
2023-02-07T03:30:30.792Z,24
2023-02-07T03:32:30.774Z,30
2023-02-07T03:33:30.957Z,25
2023-02-07T03:34:45.084Z,30
2023-02-07T03:35:59.214Z,27
2023-02-07T03:36:42.747Z,23
2023-02-07T03:37:30.642Z,33
2023-02-07T03:38:30.668Z,38
2023-02-07T03:39:30.651Z,35
2023-02-07T03:41:30.644Z,37
2023-02-07T03:42:30.644Z,22
2023-02-07T03:43:30.666Z,22
2023-02-07T03:45:30.642Z,30
2023-02-07T03:46:30.700Z,25
2023-02-07T03:47:30.667Z,24
2023-02-07T03:48:30.703Z,26
2023-02-07T03:49:30.647Z,27
2023-02-07T03:51:30.656Z,22
2023-02-07T03:53:30.641Z,26
2023-02-07T03:54:30.652Z,35
2023-02-07T03:55:30.627Z,32
2023-02-07T03:56:30.653Z,33
2023-02-07T03:58:30.654Z,26
2023-02-07T03:59:30.647Z,27
2023-02-07T04:00:30.683Z,21
2023-02-07T04:01:30.647Z,24
2023-02-07T04:02:30.642Z,23
2023-02-07T04:03:30.645Z,23
2023-02-07T04:04:30.651Z,21
2023-02-07T04:06:30.655Z,24
2023-02-07T04:07:30.657Z,24
2023-02-07T04:08:30.655Z,23
2023-02-07T04:09:30.668Z,24
2023-02-07T04:10:30.657Z,27
2023-02-07T04:11:30.645Z,24
2023-02-07T04:12:30.658Z,25
2023-02-07T04:13:30.647Z,24
2023-02-07T04:14:30.655Z,25
2023-02-07T04:15:30.633Z,23
2023-02-07T04:17:31.481Z,24
2023-02-07T04:18:30.644Z,24
2023-02-07T04:19:30.643Z,24
2023-02-07T04:20:30.654Z,29
2023-02-07T04:21:30.651Z,30
2023-02-07T04:22:30.694Z,27
2023-02-07T04:23:30.714Z,23
2023-02-07T04:25:30.680Z,23
2023-02-07T04:26:30.687Z,25
2023-02-07T04:27:30.707Z,23
2023-02-07T04:28:30.684Z,27
2023-02-07T04:29:30.706Z,26
2023-02-07T04:30:30.723Z,25
2023-02-07T04:31:30.805Z,29
2023-02-07T04:32:30.688Z,21
2023-02-07T04:33:30.711Z,21
2023-02-07T04:34:30.682Z,22
2023-02-07T04:35:31.177Z,20
2023-02-07T04:36:30.702Z,21
2023-02-07T04:38:30.775Z,17
2023-02-07T04:39:30.771Z,17
2023-02-07T04:40:30.794Z,19
2023-02-07T04:41:30.770Z,16
2023-02-07T04:42:30.767Z,20
2023-02-07T04:43:30.765Z,16
2023-02-07T04:44:30.775Z,17
2023-02-07T04:46:30.788Z,17
2023-02-07T04:47:30.774Z,18
2023-02-07T04:48:30.790Z,16
2023-02-07T04:49:33.738Z,14
2023-02-07T04:50:30.787Z,17
2023-02-07T04:51:30.772Z,16
2023-02-07T04:52:30.785Z,17
2023-02-07T04:53:30.780Z,16
2023-02-07T04:54:30.968Z,15
2023-02-07T04:55:45.086Z,16
2023-02-07T04:56:59.206Z,16
2023-02-07T04:59:27.451Z,15
2023-02-07T05:00:41.581Z,14
2023-02-07T05:01:55.715Z,14
2023-02-07T05:03:46.894Z,17
2023-02-07T05:05:38.386Z,16
2023-02-07T05:06:52.206Z,15
2023-02-07T05:08:43.394Z,15
2023-02-07T05:09:57.513Z,16
2023-02-07T05:11:48.706Z,15
2023-02-07T05:13:39.914Z,15
2023-02-07T05:22:19.196Z,15
2023-02-07T05:26:42.428Z,15
2023-02-07T05:27:31.082Z,16
2023-02-07T05:28:30.677Z,17
2023-02-07T05:31:30.771Z,16
2023-02-07T05:32:30.672Z,17
2023-02-07T05:33:30.679Z,16
2023-02-07T05:34:30.655Z,16
2023-02-07T05:35:30.670Z,16
2023-02-07T05:36:30.668Z,17
2023-02-07T05:38:30.670Z,16
2023-02-07T05:39:30.668Z,16
2023-02-07T05:41:30.684Z,16
2023-02-07T05:42:30.668Z,16
2023-02-07T05:44:30.658Z,16
2023-02-07T05:45:30.640Z,14
2023-02-07T05:46:30.702Z,15
2023-02-07T05:47:30.700Z,15
2023-02-07T05:49:30.654Z,15
2023-02-07T05:50:30.653Z,16
2023-02-07T05:51:30.665Z,16
2023-02-07T05:52:30.681Z,18
2023-02-07T05:54:30.664Z,19
2023-02-07T05:55:30.642Z,16
2023-02-07T05:56:30.659Z,15
2023-02-07T05:57:30.685Z,16
2023-02-07T05:58:30.680Z,15
2023-02-07T05:59:30.656Z,16
2023-02-07T06:00:30.689Z,18
2023-02-07T06:02:30.768Z,17
2023-02-07T06:03:30.722Z,16
2023-02-07T06:04:30.681Z,15
2023-02-07T06:05:30.638Z,15
2023-02-07T06:06:30.653Z,17
2023-02-07T06:07:30.673Z,18
2023-02-07T06:08:31.070Z,17
2023-02-07T06:10:30.720Z,15
2023-02-07T06:11:30.728Z,16
2023-02-07T06:13:30.714Z,15
2023-02-07T06:14:30.711Z,14
2023-02-07T06:15:30.768Z,15
2023-02-07T06:16:30.696Z,13
2023-02-07T06:17:30.726Z,16
2023-02-07T06:18:30.716Z,15
2023-02-07T06:19:30.708Z,15
2023-02-07T06:21:45.289Z,16
2023-02-07T06:22:30.713Z,14
2023-02-07T06:23:30.709Z,15
2023-02-07T06:24:30.710Z,14
2023-02-07T06:26:30.790Z,14
2023-02-07T06:27:30.795Z,15
2023-02-07T06:28:30.784Z,16
2023-02-07T06:29:30.812Z,13
2023-02-07T06:30:30.900Z,13
2023-02-07T06:31:30.943Z,15
2023-02-07T06:32:33.930Z,14
2023-02-07T06:34:30.793Z,14
2023-02-07T06:35:30.772Z,14
2023-02-07T06:36:30.789Z,15
2023-02-07T06:37:31.422Z,14
2023-02-07T06:38:30.783Z,14
2023-02-07T06:39:30.794Z,13
2023-02-07T06:40:30.800Z,14
2023-02-07T06:41:30.977Z,14
2023-02-07T06:42:45.100Z,13
2023-02-07T06:43:59.227Z,13
2023-02-07T06:46:27.489Z,13
2023-02-07T06:47:41.604Z,14
2023-02-07T06:48:55.728Z,13
2023-02-07T06:50:46.899Z,14
2023-02-07T06:53:52.222Z,13
2023-02-07T06:55:43.405Z,13
2023-02-07T06:56:57.536Z,13
2023-02-07T06:58:48.729Z,14
2023-02-07T07:00:39.892Z,13
2023-02-07T07:07:28.008Z,12
2023-02-07T07:09:56.275Z,14
2023-02-07T07:14:52.821Z,13
2023-02-07T07:16:33.541Z,13
2023-02-07T07:16:41.144Z,13
2023-02-07T07:17:38.298Z,12
2023-02-07T07:18:30.730Z,13
2023-02-07T07:19:30.664Z,13
2023-02-07T07:20:30.694Z,14
2023-02-07T07:23:30.670Z,13
2023-02-07T07:24:30.677Z,12
2023-02-07T07:25:30.654Z,12
2023-02-07T07:26:43.074Z,11
2023-02-07T07:27:30.672Z,11
2023-02-07T07:28:30.666Z,12
2023-02-07T07:29:30.701Z,13
2023-02-07T07:30:30.739Z,13
2023-02-07T07:31:30.780Z,13
2023-02-07T07:32:34.262Z,13
2023-02-07T07:33:30.672Z,12
2023-02-07T07:35:31.145Z,13
2023-02-07T07:36:30.676Z,13
2023-02-07T07:37:30.673Z,12
2023-02-07T07:38:30.677Z,12
2023-02-07T07:39:30.662Z,12
2023-02-07T07:40:30.659Z,12
2023-02-07T07:41:30.681Z,11
2023-02-07T07:43:30.666Z,12
2023-02-07T07:44:30.666Z,13
2023-02-07T07:45:30.699Z,13
2023-02-07T07:46:30.708Z,11
2023-02-07T07:47:30.664Z,13
2023-02-07T07:48:30.705Z,12
2023-02-07T07:49:30.661Z,12
2023-02-07T07:50:30.676Z,13
2023-02-07T07:51:30.663Z,12
2023-02-07T07:52:30.663Z,13
2023-02-07T07:54:30.661Z,13
2023-02-07T07:56:30.677Z,13
2023-02-07T07:57:30.781Z,13
2023-02-07T07:58:30.709Z,13
2023-02-07T07:59:30.730Z,15
2023-02-07T08:01:30.715Z,13
2023-02-07T08:02:30.761Z,14
2023-02-07T08:03:30.849Z,13
2023-02-07T08:04:30.716Z,14
2023-02-07T08:05:30.699Z,14
2023-02-07T08:06:30.706Z,15
2023-02-07T08:08:30.737Z,15
2023-02-07T08:09:30.720Z,18
2023-02-07T08:10:30.714Z,20
2023-02-07T08:11:30.708Z,17
2023-02-07T08:12:30.707Z,17
2023-02-07T08:13:33.128Z,22
2023-02-07T08:14:30.802Z,21
2023-02-07T08:15:30.777Z,20
2023-02-07T08:17:30.797Z,19
2023-02-07T08:18:30.797Z,20
2023-02-07T08:19:30.804Z,20
2023-02-07T08:20:30.791Z,20
2023-02-07T08:21:30.801Z,20
2023-02-07T08:22:30.813Z,19
2023-02-07T08:23:30.806Z,26
2023-02-07T08:25:30.790Z,27
2023-02-07T08:26:30.791Z,28
2023-02-07T08:27:30.798Z,30
2023-02-07T08:28:30.796Z,32
2023-02-07T08:29:30.809Z,33
2023-02-07T08:30:31.039Z,34
2023-02-07T08:31:45.145Z,34
2023-02-07T08:32:59.244Z,33
2023-02-07T08:35:27.493Z,38
2023-02-07T08:36:41.611Z,37
2023-02-07T08:37:55.735Z,37
2023-02-07T08:39:46.906Z,36
2023-02-07T08:41:38.098Z,36
2023-02-07T08:42:52.222Z,37
2023-02-07T08:44:43.479Z,38
2023-02-07T08:45:57.768Z,40
2023-02-07T08:47:48.724Z,36
2023-02-07T08:49:39.909Z,34
2023-02-07T08:50:54.854Z,32
2023-02-07T08:53:22.679Z,31
2023-02-07T08:54:36.817Z,28
2023-02-07T08:55:57.413Z,25
2023-02-07T08:57:30.697Z,27
2023-02-07T09:00:30.679Z,26
2023-02-07T09:01:30.751Z,28
2023-02-07T09:02:30.719Z,26
2023-02-07T09:03:30.672Z,26
2023-02-07T09:04:30.703Z,24
2023-02-07T09:05:30.660Z,27
2023-02-07T09:07:30.686Z,24
2023-02-07T09:08:30.684Z,24
2023-02-07T09:09:31.460Z,22
2023-02-07T09:10:30.677Z,22
2023-02-07T09:12:30.681Z,23
2023-02-07T09:13:30.669Z,21
2023-02-07T09:14:30.683Z,20
2023-02-07T09:15:30.658Z,20
2023-02-07T09:16:30.705Z,19
2023-02-07T09:18:30.677Z,19
2023-02-07T09:19:30.667Z,19
2023-02-07T09:20:30.683Z,18
2023-02-07T09:21:30.668Z,19
2023-02-07T09:23:30.681Z,17
2023-02-07T09:24:30.683Z,16
2023-02-07T09:25:30.663Z,16
2023-02-07T09:26:30.678Z,16
2023-02-07T09:27:30.682Z,14
2023-02-07T09:28:30.683Z,14
2023-02-07T09:29:30.707Z,14
2023-02-07T09:32:30.706Z,14
2023-02-07T09:33:30.683Z,12
2023-02-07T09:34:30.682Z,13
2023-02-07T09:35:30.668Z,13
2023-02-07T09:36:30.763Z,13
2023-02-07T09:37:34.890Z,12
2023-02-07T09:39:30.722Z,12
2023-02-07T09:40:30.728Z,12
2023-02-07T09:41:30.778Z,11
2023-02-07T09:42:30.741Z,11
2023-02-07T09:43:36.443Z,11
2023-02-07T09:44:30.884Z,12
2023-02-07T09:45:30.879Z,12
2023-02-07T09:46:30.772Z,10
2023-02-07T09:47:30.729Z,10
2023-02-07T09:48:30.736Z,11
2023-02-07T09:49:30.751Z,10
2023-02-07T09:50:31.121Z,11
2023-02-07T09:53:30.722Z,10
2023-02-07T09:54:30.738Z,9
2023-02-07T09:55:30.804Z,11
2023-02-07T09:56:30.814Z,10
2023-02-07T09:57:30.816Z,10
2023-02-07T09:58:30.808Z,10
2023-02-07T09:59:30.815Z,10
2023-02-07T10:00:30.813Z,10
2023-02-07T10:01:30.876Z,10
2023-02-07T10:02:30.909Z,10
2023-02-07T10:03:30.844Z,11
2023-02-07T10:04:30.823Z,11
2023-02-07T10:05:30.816Z,11
2023-02-07T10:06:30.812Z,10
2023-02-07T10:08:40.679Z,9
2023-02-07T10:09:30.812Z,10
2023-02-07T10:10:30.834Z,10
2023-02-07T10:11:31.013Z,10
2023-02-07T10:12:45.141Z,10
2023-02-07T10:13:59.241Z,10
2023-02-07T10:16:27.496Z,10
2023-02-07T10:17:41.618Z,9
2023-02-07T10:18:55.742Z,9
2023-02-07T10:20:46.933Z,10
2023-02-07T10:22:38.118Z,10
2023-02-07T10:23:52.251Z,10
2023-02-07T10:25:43.439Z,8
2023-02-07T10:26:57.603Z,7
2023-02-07T10:28:48.741Z,6
2023-02-07T10:30:40.368Z,7
2023-02-07T10:31:54.447Z,7
2023-02-07T10:34:22.018Z,7
2023-02-07T10:34:28.779Z,6
2023-02-07T10:35:40.480Z,6
2023-02-07T10:36:30.681Z,6
2023-02-07T10:37:30.685Z,6
2023-02-07T10:39:30.682Z,6
2023-02-07T10:40:30.681Z,6
2023-02-07T10:41:30.710Z,6
2023-02-07T10:42:30.684Z,6
2023-02-07T10:45:30.687Z,6
2023-02-07T10:46:30.783Z,6
2023-02-07T10:47:30.676Z,6
2023-02-07T10:49:30.725Z,6
2023-02-07T10:50:30.892Z,6
2023-02-07T10:51:30.684Z,7
2023-02-07T10:52:30.684Z,7
2023-02-07T10:54:30.758Z,7
2023-02-07T10:55:30.691Z,7
2023-02-07T10:56:30.685Z,6
2023-02-07T10:57:30.714Z,7
2023-02-07T10:58:30.689Z,6
2023-02-07T10:59:30.694Z,6
2023-02-07T11:00:30.692Z,6
2023-02-07T11:01:30.920Z,6
2023-02-07T11:02:30.701Z,7
2023-02-07T11:03:30.687Z,6
2023-02-07T11:05:30.702Z,6
2023-02-07T11:06:30.688Z,6
2023-02-07T11:07:36.791Z,6
2023-02-07T11:08:30.687Z,6
2023-02-07T11:09:30.695Z,6
2023-02-07T11:10:30.694Z,6
2023-02-07T11:11:30.694Z,6
2023-02-07T11:12:30.692Z,6
2023-02-07T11:13:30.688Z,6
2023-02-07T11:14:30.699Z,7
2023-02-07T11:15:30.665Z,7
2023-02-07T11:16:30.684Z,6
2023-02-07T11:18:30.735Z,6
2023-02-07T11:19:30.760Z,6
2023-02-07T11:20:30.733Z,6
2023-02-07T11:21:30.751Z,6
2023-02-07T11:22:30.734Z,6
2023-02-07T11:23:30.734Z,6
2023-02-07T11:24:30.736Z,6
2023-02-07T11:25:30.728Z,6
2023-02-07T11:26:30.804Z,6
2023-02-07T11:27:30.744Z,6
2023-02-07T11:28:30.739Z,6
2023-02-07T11:29:30.743Z,6
2023-02-07T11:30:30.863Z,6
2023-02-07T11:31:30.854Z,6
2023-02-07T11:32:30.740Z,6
2023-02-07T11:33:30.822Z,6
2023-02-07T11:34:30.823Z,6
2023-02-07T11:37:30.855Z,6
2023-02-07T11:38:30.832Z,5
2023-02-07T11:39:30.848Z,6
2023-02-07T11:40:30.823Z,5
2023-02-07T11:41:30.854Z,5
2023-02-07T11:42:30.822Z,5
2023-02-07T11:43:30.843Z,5
2023-02-07T11:45:30.826Z,6
2023-02-07T11:46:30.879Z,6
2023-02-07T11:47:30.860Z,5
2023-02-07T11:48:30.832Z,5
2023-02-07T11:49:31.008Z,5
2023-02-07T11:50:45.225Z,5
2023-02-07T11:51:59.278Z,6
2023-02-07T11:54:27.510Z,5
2023-02-07T11:55:41.727Z,5
2023-02-07T11:58:46.950Z,5
2023-02-07T12:01:52.392Z,6
2023-02-07T12:03:43.444Z,5
2023-02-07T12:04:57.593Z,5
2023-02-07T12:05:41.306Z,5
2023-02-07T12:05:48.073Z,5
2023-02-07T12:07:30.714Z,5
2023-02-07T12:08:30.717Z,5
2023-02-07T12:09:30.710Z,5
2023-02-07T12:10:30.795Z,5
2023-02-07T12:11:30.732Z,5
2023-02-07T12:12:30.714Z,5
2023-02-07T12:13:30.709Z,5
2023-02-07T12:14:30.720Z,4
2023-02-07T12:15:30.697Z,5
2023-02-07T12:16:30.762Z,5
2023-02-07T12:17:30.742Z,5
2023-02-07T12:19:30.703Z,5
2023-02-07T12:20:30.706Z,4
2023-02-07T12:21:30.748Z,5
2023-02-07T12:22:30.784Z,4
2023-02-07T12:23:43.074Z,4
2023-02-07T12:24:30.725Z,4
2023-02-07T12:25:30.857Z,4
2023-02-07T12:26:30.717Z,4
2023-02-07T12:27:30.738Z,4
2023-02-07T12:28:30.709Z,5
2023-02-07T12:30:30.718Z,4
2023-02-07T12:31:30.829Z,4
2023-02-07T12:32:30.825Z,4
2023-02-07T12:33:30.733Z,4
2023-02-07T12:34:30.720Z,4
2023-02-07T12:35:30.713Z,4
2023-02-07T12:36:30.720Z,4
2023-02-07T12:38:30.716Z,4
2023-02-07T12:39:30.763Z,5
2023-02-07T12:40:30.735Z,5
2023-02-07T12:41:30.728Z,5
2023-02-07T12:42:30.724Z,5
2023-02-07T12:43:30.714Z,5
2023-02-07T12:44:30.720Z,5
2023-02-07T12:45:30.754Z,4
2023-02-07T12:46:30.730Z,5
2023-02-07T12:47:30.724Z,5
2023-02-07T12:48:30.720Z,5
2023-02-07T12:49:30.769Z,4
2023-02-07T12:51:30.774Z,5
2023-02-07T12:52:30.766Z,5
2023-02-07T12:53:30.768Z,4
2023-02-07T12:54:30.767Z,4
2023-02-07T12:55:30.747Z,5
2023-02-07T12:56:30.779Z,5
2023-02-07T12:57:30.768Z,5
2023-02-07T13:00:30.808Z,5
2023-02-07T13:01:30.767Z,5
2023-02-07T13:02:30.851Z,5
2023-02-07T13:03:30.768Z,5
2023-02-07T13:04:30.789Z,4
2023-02-07T13:05:30.846Z,4
2023-02-07T13:07:30.848Z,5
2023-02-07T13:09:30.860Z,5
2023-02-07T13:10:30.843Z,5
2023-02-07T13:11:30.856Z,5
2023-02-07T13:12:30.854Z,5
2023-02-07T13:14:30.846Z,5
2023-02-07T13:15:30.832Z,4
2023-02-07T13:16:30.909Z,5
2023-02-07T13:17:30.849Z,5
2023-02-07T13:18:30.853Z,5
2023-02-07T13:19:30.848Z,5
2023-02-07T13:20:30.857Z,5
2023-02-07T13:22:45.157Z,5
2023-02-07T13:23:59.280Z,5
2023-02-07T13:26:27.564Z,5
2023-02-07T13:27:41.650Z,5
2023-02-07T13:28:55.770Z,5
2023-02-07T13:30:47.025Z,5
2023-02-07T13:33:52.273Z,5
2023-02-07T13:35:43.463Z,5
2023-02-07T13:37:00.720Z,5
2023-02-07T13:38:48.795Z,5
2023-02-07T13:40:40.336Z,5
2023-02-07T13:41:54.458Z,5
2023-02-07T13:44:22.729Z,5
2023-02-07T13:45:37.578Z,5
2023-02-07T13:49:19.271Z,5
2023-02-07T13:50:33.397Z,5
2023-02-07T13:55:29.921Z,5
2023-02-07T13:56:50.374Z,5
2023-02-07T13:57:40.648Z,5
2023-02-07T13:58:30.725Z,5
2023-02-07T14:00:30.721Z,5
2023-02-07T14:02:30.729Z,4
2023-02-07T14:03:30.811Z,5
2023-02-07T14:04:30.761Z,5
2023-02-07T14:05:30.734Z,5
2023-02-07T14:06:30.731Z,5
2023-02-07T14:07:30.737Z,5
2023-02-07T14:08:30.730Z,5
2023-02-07T14:09:30.769Z,5
2023-02-07T14:10:30.776Z,5
2023-02-07T14:11:30.726Z,5
2023-02-07T14:12:30.725Z,5
2023-02-07T14:13:30.735Z,5
2023-02-07T14:15:30.795Z,5
2023-02-07T14:16:30.735Z,4
2023-02-07T14:17:30.749Z,5
2023-02-07T14:18:30.760Z,5
2023-02-07T14:19:30.740Z,5
2023-02-07T14:20:30.737Z,5
2023-02-07T14:21:30.764Z,5
2023-02-07T14:23:30.741Z,5
2023-02-07T14:24:30.745Z,5
2023-02-07T14:25:30.758Z,5
2023-02-07T14:26:30.782Z,5
2023-02-07T14:27:30.745Z,5
2023-02-07T14:29:30.757Z,5
2023-02-07T14:30:30.738Z,5
2023-02-07T14:31:30.857Z,5
2023-02-07T14:32:30.730Z,8
2023-02-07T14:34:30.758Z,6
2023-02-07T14:35:30.740Z,7
2023-02-07T14:36:30.790Z,8
2023-02-07T14:37:30.729Z,6
2023-02-07T14:38:30.734Z,6
2023-02-07T14:39:30.775Z,5
2023-02-07T14:40:30.780Z,5
2023-02-07T14:42:30.784Z,6
2023-02-07T14:43:30.786Z,6
2023-02-07T14:44:30.831Z,6
2023-02-07T14:45:30.823Z,6
2023-02-07T14:47:30.783Z,7
2023-02-07T14:48:30.783Z,6
2023-02-07T14:49:30.783Z,6
2023-02-07T14:50:30.785Z,9
2023-02-07T14:51:30.783Z,8
2023-02-07T14:52:30.855Z,6
2023-02-07T14:53:30.872Z,5
2023-02-07T14:55:30.893Z,6
2023-02-07T14:56:30.870Z,8
2023-02-07T14:57:31.876Z,6
2023-02-07T14:58:30.881Z,5
2023-02-07T14:59:30.870Z,7
2023-02-07T15:00:30.888Z,5
2023-02-07T15:01:30.956Z,5
2023-02-07T15:03:30.887Z,6
2023-02-07T15:04:30.877Z,5
2023-02-07T15:05:30.879Z,5
2023-02-07T15:06:32.790Z,5
2023-02-07T15:08:30.967Z,5
2023-02-07T15:09:30.892Z,5
2023-02-07T15:10:30.935Z,6
2023-02-07T15:11:30.878Z,5
2023-02-07T15:12:31.074Z,5
2023-02-07T15:17:42.661Z,6
2023-02-07T15:18:41.696Z,5
2023-02-07T15:19:55.812Z,5
2023-02-07T15:21:47.036Z,6
2023-02-07T15:23:38.189Z,6
2023-02-07T15:24:52.360Z,6
2023-02-07T15:26:43.504Z,6
2023-02-07T15:27:57.701Z,5
2023-02-07T15:29:18.209Z,6
2023-02-07T15:29:39.000Z,6
2023-02-07T15:30:30.807Z,5
2023-02-07T15:31:31.138Z,6
2023-02-07T15:32:31.094Z,5
2023-02-07T15:33:30.753Z,5
2023-02-07T15:34:30.753Z,5
2023-02-07T15:35:30.746Z,6
2023-02-07T15:36:30.749Z,5
2023-02-07T15:37:30.750Z,6
2023-02-07T15:38:30.753Z,6
2023-02-07T15:39:30.746Z,7
2023-02-07T15:40:30.762Z,8
2023-02-07T15:41:30.776Z,10
2023-02-07T15:42:30.742Z,10
2023-02-07T15:43:30.774Z,8
2023-02-07T15:44:30.761Z,7
2023-02-07T15:45:30.760Z,6
2023-02-07T15:46:30.774Z,7
2023-02-07T15:47:30.757Z,6
2023-02-07T15:48:30.753Z,7
2023-02-07T15:50:30.759Z,7
2023-02-07T15:51:30.758Z,7
2023-02-07T15:52:30.752Z,6
2023-02-07T15:53:30.767Z,6
2023-02-07T15:54:30.751Z,7
2023-02-07T15:55:30.750Z,7
2023-02-07T15:56:31.156Z,6
2023-02-07T15:58:30.759Z,7
2023-02-07T16:00:30.767Z,7
2023-02-07T16:01:30.845Z,7
2023-02-07T16:02:30.816Z,7
2023-02-07T16:03:30.757Z,8
2023-02-07T16:04:30.770Z,7
2023-02-07T16:05:30.756Z,8
2023-02-07T16:06:30.772Z,8
2023-02-07T16:07:31.144Z,8
2023-02-07T16:08:30.759Z,6
2023-02-07T16:09:30.767Z,6
2023-02-07T16:11:30.766Z,6
2023-02-07T16:12:30.808Z,7
2023-02-07T16:13:30.814Z,7
2023-02-07T16:14:30.812Z,6
2023-02-07T16:15:30.793Z,7
2023-02-07T16:16:30.812Z,6
2023-02-07T16:17:30.824Z,7
2023-02-07T16:19:30.807Z,6
2023-02-07T16:20:30.827Z,6
2023-02-07T16:21:30.815Z,6
2023-02-07T16:22:30.829Z,6
2023-02-07T16:23:30.826Z,6
2023-02-07T16:24:30.829Z,6
2023-02-07T16:25:30.800Z,6
2023-02-07T16:26:30.816Z,6
2023-02-07T16:27:30.815Z,6
2023-02-07T16:28:30.822Z,5
2023-02-07T16:30:30.894Z,6
2023-02-07T16:31:30.967Z,5
2023-02-07T16:32:30.917Z,6
2023-02-07T16:33:30.900Z,7
2023-02-07T16:34:30.930Z,7
2023-02-07T16:35:30.891Z,6
2023-02-07T16:36:30.904Z,6
2023-02-07T16:38:30.910Z,6
2023-02-07T16:39:30.912Z,6
2023-02-07T16:41:30.899Z,6
2023-02-07T16:42:30.920Z,6
2023-02-07T16:43:30.901Z,6
2023-02-07T16:44:30.897Z,6
2023-02-07T16:45:30.909Z,6
2023-02-07T16:46:31.106Z,6
2023-02-07T16:47:45.221Z,6
2023-02-07T16:48:59.336Z,6
2023-02-07T16:51:27.604Z,6
2023-02-07T16:52:41.713Z,6
2023-02-07T16:53:55.831Z,5
2023-02-07T16:54:39.372Z,6
2023-02-07T16:55:30.771Z,6
2023-02-07T16:56:30.778Z,6
2023-02-07T16:57:30.797Z,6
2023-02-07T16:59:30.785Z,6
2023-02-07T17:00:30.784Z,6
2023-02-07T17:01:30.770Z,6
2023-02-07T17:03:30.791Z,6
2023-02-07T17:04:30.777Z,6
2023-02-07T17:05:30.756Z,6
2023-02-07T17:06:30.792Z,6
2023-02-07T17:07:30.774Z,6
2023-02-07T17:08:30.774Z,6
2023-02-07T17:09:30.782Z,7
2023-02-07T17:12:30.784Z,7
2023-02-07T17:13:30.778Z,6
2023-02-07T17:14:30.770Z,6
2023-02-07T17:15:30.769Z,6
2023-02-07T17:16:30.867Z,6
2023-02-07T17:17:30.804Z,6
2023-02-07T17:18:30.768Z,6
2023-02-07T17:20:30.781Z,6
2023-02-07T17:21:30.790Z,6
2023-02-07T17:22:30.786Z,7
2023-02-07T17:24:30.769Z,6
2023-02-07T17:25:30.768Z,6
2023-02-07T17:26:30.782Z,6
2023-02-07T17:27:30.775Z,6
2023-02-07T17:28:30.773Z,6
2023-02-07T17:29:30.808Z,6
2023-02-07T17:31:30.853Z,7
2023-02-07T17:32:30.796Z,7
2023-02-07T17:33:30.774Z,6
2023-02-07T17:59:30.915Z,13
2023-02-07T18:13:45.224Z,9
2023-02-07T18:17:27.602Z,8
2023-02-07T18:18:41.712Z,8
2023-02-07T18:21:47.029Z,10
2023-02-07T18:23:38.206Z,9
2023-02-07T18:24:52.353Z,9
2023-02-07T18:27:57.679Z,9
2023-02-07T18:28:41.638Z,8
2023-02-07T18:28:48.437Z,8
2023-02-07T18:52:30.773Z,7
2023-02-07T19:18:30.834Z,8
2023-02-07T19:43:30.928Z,9
2023-02-07T19:44:30.926Z,9
2023-02-07T19:50:27.614Z,9
2023-02-07T19:51:41.720Z,9
2023-02-07T19:52:55.858Z,9
2023-02-07T19:54:47.029Z,9
2023-02-07T19:56:38.227Z,10
2023-02-07T19:57:52.344Z,10
2023-02-07T19:59:43.543Z,9
2023-02-07T20:00:57.659Z,10
2023-02-07T20:02:48.875Z,10
2023-02-07T20:04:40.015Z,10
2023-02-07T20:08:42.852Z,10
2023-02-07T20:10:30.787Z,9
2023-02-07T20:11:30.802Z,10